Alexandria International Airport
KAEX : now visible

Airfield :











YOU CAN JOIN US ON...

 
LOGIN :

Register | Disclaimer

   EN    FR    IT 

 









Legend :    VFR   Marginal VFR   IFR   Intensive IFR   Very Intensive IFR
Visi :
Ceiling :
>= 8 km
>= 3000ft
5 to 8 km
1000 to 3000 ft
1500m to 5 km
500 to 1000 ft
800 to 1500m
200 to 500 ft
< 800m
< 200 ft
Symbols :   Thunderstorms  Fog  Heavy snow  Heavy precipitations  Wind > 20 kt






- Airport Elevation : 89 ft
- IATA code : AEX


KAEX - Alexandria International

CURRENT METAR :
  • 280727Z 00000KT 3SM CLR 05/04 A2999 RMK AO2 T00500044

EXPIRED METARs :
  • 280712Z 00000KT 1 3/4SM CLR 05/04 A3000 RMK AO2 T00500039
  • 280655Z 00000KT 1 3/4SM CLR 06/04 A3000 RMK AO2 T00560044
  • 280653Z 00000KT 3SM CLR 06/04 A3000 RMK AO2 SLP164 T00560044
  • 280553Z 11003KT 3SM CLR 06/05 A3001 RMK AO2 SLP168 T00610050 10117 20061 401330061 58001
  • 280453Z 00000KT 9SM CLR 07/06 A3002 RMK AO2 SLP170 T00720061

TAF KAEX
Valid from the 28 at 06:00 until the 29 at 06:00 UTC


280522Z 2806/2906 VRB05KT P6SM SCT015
FM280800 VRB03KT 3SM BR OVC007
FM281600 11006KT P6SM OVC012
FM281800 14010KT P6SM VCSH OVC035
FM290100 12010KT P6SM VCSH OVC025



MET'MAP, your aeronautical weather chart ! - Copyright ORBIFLY December 2007 - Disclaimer

ORBIFLY MET'MAP TEAM :

Programming & Development : Alexandra Zaïnal
Concept & original design : Baudouin d'Aumeries
Assistance for programming : Marc-Olivier Méhu
Technical & hardware support : Manuel Goepfert

Contact : metmap@orbifly.com




SOURCES & CREDITS :

   NOAA       Earth
Advisory